Time;durP1;ratioP1;P1;durP2;ratioP2;P2;SDS_P1;SDS_P2;PMS_P1;PMS_P2;Temp;Humidity;BMP_temperature;BMP_pressure;BME280_temperature;BME280_humidity;BME280_pressure;Samples;Min_cycle;Max_cycle;Signal;HPM_P1;HPM_P2
2023/03/22 00:01:59;;;;;;;5.30;2.20;;;;;;;;;;4989874;28;20077;-82
2023/03/22 00:04:25;;;;;;;6.90;2.38;;;;;;;;;;4998413;28;20022;-82
2023/03/22 00:06:50;;;;;;;8.00;2.80;;;;;;;;;;4972228;28;20455;-81
2023/03/22 00:09:16;;;;;;;9.05;2.30;;;;;;;;;;4978071;28;20026;-81
2023/03/22 00:11:41;;;;;;;6.60;2.15;;;;;;;;;;4971560;28;20462;-81
2023/03/22 00:14:06;;;;;;;4.72;2.05;;;;;;;;;;4988785;28;20026;-81
2023/03/22 00:16:32;;;;;;;4.22;1.90;;;;;;;;;;4986382;28;20018;-82
2023/03/22 00:18:57;;;;;;;6.13;2.13;;;;;;;;;;4989473;28;20173;-81
2023/03/22 00:21:23;;;;;;;6.40;2.28;;;;;;;;;;4981870;28;20471;-81
2023/03/22 00:23:48;;;;;;;6.07;2.22;;;;;;;;;;4984610;28;20022;-82
2023/03/22 00:26:14;;;;;;;7.63;2.38;;;;;;;;;;4985909;28;20030;-82
2023/03/22 00:28:40;;;;;;;5.45;2.10;;;;;;;;;;4977504;28;20110;-81
2023/03/22 00:31:06;;;;;;;5.88;2.47;;;;;;;;;;4970098;28;20077;-80
2023/03/22 00:33:32;;;;;;;6.80;2.50;;;;;;;;;;4968419;28;20445;-82
2023/03/22 00:36:10;;;;;;;5.43;2.65;;;;;;;;;;4967659;28;20034;-82
2023/03/22 00:38:35;;;;;;;6.32;2.42;;;;;;;;;;4973616;28;20109;-81
2023/03/22 00:41:07;;;;;;;5.38;2.47;;;;;;;;;;4977161;28;20118;-82
2023/03/22 00:43:33;;;;;;;7.68;2.30;;;;;;;;;;4990020;28;20081;-82
2023/03/22 00:45:58;;;;;;;7.15;2.70;;;;;;;;;;4992719;28;20479;-82
2023/03/22 00:48:24;;;;;;;5.45;2.30;;;;;;;;;;4971950;28;20026;-81
2023/03/22 00:50:49;;;;;;;5.43;2.13;;;;;;;;;;4986872;28;20029;-82
2023/03/22 00:53:15;;;;;;;4.65;2.20;;;;;;;;;;4977767;28;20508;-81
2023/03/22 00:55:40;;;;;;;7.00;2.22;;;;;;;;;;5003358;28;20027;-81
2023/03/22 00:58:05;;;;;;;4.70;2.10;;;;;;;;;;4975896;28;20088;-82
2023/03/22 01:00:32;;;;;;;7.70;2.08;;;;;;;;;;4985529;28;20117;-81
2023/03/22 01:02:58;;;;;;;6.95;2.40;;;;;;;;;;4990261;28;20022;-81
2023/03/22 01:05:24;;;;;;;4.97;2.03;;;;;;;;;;4974052;28;20033;-81
2023/03/22 01:07:50;;;;;;;5.22;2.25;;;;;;;;;;4971794;28;20030;-81
2023/03/22 01:10:17;;;;;;;4.30;1.88;;;;;;;;;;4972447;28;20018;-81
2023/03/22 01:12:42;;;;;;;4.47;2.25;;;;;;;;;;4979950;28;20030;-81
2023/03/22 01:15:08;;;;;;;5.45;2.40;;;;;;;;;;4972794;28;20037;-81
2023/03/22 01:17:34;;;;;;;6.15;2.10;;;;;;;;;;4983997;28;20027;-81
2023/03/22 01:19:59;;;;;;;4.95;2.45;;;;;;;;;;4986892;28;20604;-81
2023/03/22 01:22:25;;;;;;;5.80;2.33;;;;;;;;;;4990325;28;20064;-81
2023/03/22 01:24:50;;;;;;;11.20;2.15;;;;;;;;;;4975639;28;20034;-81
2023/03/22 01:27:16;;;;;;;6.53;2.05;;;;;;;;;;4977990;28;20029;-81
2023/03/22 01:29:41;;;;;;;5.47;2.25;;;;;;;;;;4993212;28;20069;-81
2023/03/22 01:32:07;;;;;;;4.05;2.33;;;;;;;;;;4994502;28;20318;-81
2023/03/22 01:34:32;;;;;;;5.03;2.30;;;;;;;;;;4988157;28;20027;-81
2023/03/22 01:36:57;;;;;;;7.38;2.63;;;;;;;;;;4990355;28;20117;-81
2023/03/22 01:39:23;;;;;;;9.18;2.50;;;;;;;;;;5003384;28;20026;-81
2023/03/22 01:41:48;;;;;;;7.45;2.75;;;;;;;;;;4973030;28;20038;-81
2023/03/22 01:44:17;;;;;;;6.13;2.63;;;;;;;;;;4989101;28;20030;-82
2023/03/22 01:46:45;;;;;;;8.00;2.55;;;;;;;;;;4975458;28;20035;-81
2023/03/22 01:49:30;;;;;;;6.13;2.60;;;;;;;;;;4993597;28;20034;-81
2023/03/22 01:52:00;;;;;;;7.95;2.88;;;;;;;;;;4976631;28;20382;-81
2023/03/22 01:54:59;;;;;;;6.95;2.85;;;;;;;;;;4981323;28;20025;-81
2023/03/22 01:57:24;;;;;;;5.63;2.78;;;;;;;;;;4955143;28;20375;-81
2023/03/22 01:59:50;;;;;;;8.05;3.88;;;;;;;;;;4990204;28;20042;-81
2023/03/22 02:02:19;;;;;;;7.05;3.15;;;;;;;;;;4972454;28;20026;-81
2023/03/22 02:04:49;;;;;;;7.65;3.42;;;;;;;;;;4991624;28;20037;-81
2023/03/22 02:07:17;;;;;;;8.27;3.50;;;;;;;;;;4992242;28;20026;-81
2023/03/22 02:09:42;;;;;;;7.32;3.40;;;;;;;;;;4977468;28;20498;-81
2023/03/22 02:12:29;;;;;;;11.25;4.80;;;;;;;;;;4990282;28;20034;-82
2023/03/22 02:15:09;;;;;;;8.65;4.25;;;;;;;;;;4989249;28;20031;-81
2023/03/22 02:18:05;;;;;;;8.27;4.30;;;;;;;;;;4984603;28;20077;-82
2023/03/22 02:20:37;;;;;;;9.25;4.35;;;;;;;;;;4966928;28;20058;-82
2023/03/22 02:23:08;;;;;;;8.45;4.30;;;;;;;;;;4973840;28;20040;-81
2023/03/22 02:25:52;;;;;;;7.63;4.30;;;;;;;;;;4981123;28;20085;-81
2023/03/22 02:28:55;;;;;;;9.73;4.20;;;;;;;;;;4985808;28;20475;-81
2023/03/22 02:31:48;;;;;;;9.00;4.73;;;;;;;;;;5001182;28;20026;-81
2023/03/22 02:34:45;;;;;;;7.60;4.22;;;;;;;;;;4973412;28;20125;-81
2023/03/22 02:37:56;;;;;;;7.07;4.28;;;;;;;;;;4983001;28;20483;-81
2023/03/22 02:40:32;;;;;;;8.77;4.65;;;;;;;;;;4949081;28;20096;-81
2023/03/22 02:43:29;;;;;;;11.05;4.88;;;;;;;;;;4974314;28;20026;-81
2023/03/22 02:46:06;;;;;;;9.05;4.88;;;;;;;;;;4989734;28;20462;-81
2023/03/22 02:48:39;;;;;;;8.35;5.30;;;;;;;;;;4984344;28;20487;-81
2023/03/22 02:51:07;;;;;;;;;;;;;;;;;;4987544;28;20015;-82
2023/03/22 02:54:01;;;;;;;9.32;5.20;;;;;;;;;;4982758;28;20359;-81
2023/03/22 02:56:38;;;;;;;11.60;5.45;;;;;;;;;;4975790;28;20393;-81
2023/03/22 02:59:05;;;;;;;9.73;5.63;;;;;;;;;;4971699;28;20026;-81
2023/03/22 03:01:45;;;;;;;10.63;5.78;;;;;;;;;;4971137;28;20032;-81
2023/03/22 03:04:16;;;;;;;9.85;5.38;;;;;;;;;;4986667;28;20022;-82
2023/03/22 03:06:44;;;;;;;9.48;5.72;;;;;;;;;;4970027;28;20026;-82
2023/03/22 03:09:12;;;;;;;9.05;5.75;;;;;;;;;;4991296;28;20018;-82
2023/03/22 03:11:38;;;;;;;8.75;5.75;;;;;;;;;;4991950;28;20069;-81
2023/03/22 03:14:03;;;;;;;9.50;5.85;;;;;;;;;;4990149;28;20034;-81
2023/03/22 03:16:33;;;;;;;9.65;5.88;;;;;;;;;;4986427;28;20034;-81
2023/03/22 03:19:24;;;;;;;8.85;5.93;;;;;;;;;;4973208;28;20054;-82
2023/03/22 03:22:06;;;;;;;9.93;4.85;;;;;;;;;;4981447;28;20030;-81
2023/03/22 03:24:31;;;;;;;8.93;5.60;;;;;;;;;;4988660;28;20029;-81
2023/03/22 03:27:01;;;;;;;8.93;5.50;;;;;;;;;;4976047;28;21858;-81
2023/03/22 03:29:42;;;;;;;9.13;4.85;;;;;;;;;;4987603;28;20089;-82
2023/03/22 03:32:20;;;;;;;8.10;5.40;;;;;;;;;;4971901;28;20060;-82
2023/03/22 03:35:21;;;;;;;8.55;5.38;;;;;;;;;;4967982;28;20422;-81
2023/03/22 03:38:17;;;;;;;12.80;5.20;;;;;;;;;;4985615;28;20023;-81
2023/03/22 03:40:48;;;;;;;8.98;5.13;;;;;;;;;;4976701;28;20391;-82
2023/03/22 03:43:14;;;;;;;10.05;5.03;;;;;;;;;;4985801;28;20079;-82
2023/03/22 03:45:40;;;;;;;9.90;5.55;;;;;;;;;;4968927;28;20164;-81
2023/03/22 03:48:26;;;;;;;8.60;5.15;;;;;;;;;;4987040;28;20421;-81
2023/03/22 03:50:53;;;;;;;8.23;5.25;;;;;;;;;;4967047;28;20033;-82
2023/03/22 03:53:18;;;;;;;7.40;4.93;;;;;;;;;;4983091;28;20536;-81
2023/03/22 03:55:44;;;;;;;7.95;5.32;;;;;;;;;;4987998;28;20047;-81
2023/03/22 03:58:09;;;;;;;8.85;5.13;;;;;;;;;;4989192;28;20363;-82
2023/03/22 04:00:35;;;;;;;10.02;5.03;;;;;;;;;;4991330;28;20045;-82
2023/03/22 04:03:01;;;;;;;12.23;5.80;;;;;;;;;;4988012;28;20035;-82
2023/03/22 04:05:27;;;;;;;11.07;5.75;;;;;;;;;;4981530;28;20027;-81
2023/03/22 04:07:52;;;;;;;10.02;5.43;;;;;;;;;;4986280;28;20022;-81
2023/03/22 04:10:18;;;;;;;8.20;5.30;;;;;;;;;;4977011;28;20088;-82
2023/03/22 04:12:43;;;;;;;9.65;5.18;;;;;;;;;;4988707;28;20391;-81
2023/03/22 04:15:10;;;;;;;9.48;5.15;;;;;;;;;;4989373;28;20105;-81
2023/03/22 04:17:36;;;;;;;9.25;5.75;;;;;;;;;;4985570;28;20418;-81
2023/03/22 04:20:03;;;;;;;8.75;5.18;;;;;;;;;;4993289;28;20033;-81
2023/03/22 04:22:33;;;;;;;7.85;5.00;;;;;;;;;;4971596;28;20403;-82
2023/03/22 04:25:02;;;;;;;7.13;4.50;;;;;;;;;;4991833;28;20026;-81
2023/03/22 04:27:28;;;;;;;7.43;4.57;;;;;;;;;;4969505;28;20619;-82
2023/03/22 04:29:53;;;;;;;9.00;5.18;;;;;;;;;;4973616;28;20022;-81
2023/03/22 04:32:23;;;;;;;7.88;5.00;;;;;;;;;;4968111;28;20019;-81
2023/03/22 04:34:49;;;;;;;7.78;4.75;;;;;;;;;;4992968;28;20034;-81
2023/03/22 04:37:15;;;;;;;9.75;4.60;;;;;;;;;;4991470;28;20474;-81
2023/03/22 04:39:41;;;;;;;11.55;4.72;;;;;;;;;;4978053;28;20427;-82
2023/03/22 04:42:07;;;;;;;8.63;4.53;;;;;;;;;;4983626;28;20403;-81
2023/03/22 04:44:33;;;;;;;8.32;5.35;;;;;;;;;;4969255;28;20018;-82
2023/03/22 04:46:58;;;;;;;9.73;4.90;;;;;;;;;;4988500;28;20462;-82
2023/03/22 04:49:25;;;;;;;9.32;4.70;;;;;;;;;;4983542;28;20061;-81
2023/03/22 04:51:50;;;;;;;8.02;4.55;;;;;;;;;;4991192;28;20073;-81
2023/03/22 04:54:16;;;;;;;10.32;4.70;;;;;;;;;;4977679;28;20035;-81
2023/03/22 04:56:41;;;;;;;6.72;4.32;;;;;;;;;;4993299;28;20482;-82
2023/03/22 04:59:07;;;;;;;7.00;4.20;;;;;;;;;;4992903;28;20101;-81
2023/03/22 05:01:34;;;;;;;11.55;4.70;;;;;;;;;;4991058;28;20070;-81
2023/03/22 05:03:59;;;;;;;7.38;4.50;;;;;;;;;;4970870;28;20034;-81
2023/03/22 05:06:25;;;;;;;9.55;4.78;;;;;;;;;;4987449;28;20406;-81
2023/03/22 05:08:51;;;;;;;9.18;5.18;;;;;;;;;;4993755;28;20028;-81
2023/03/22 05:11:19;;;;;;;10.15;5.63;;;;;;;;;;4976111;28;20030;-81
2023/03/22 05:13:45;;;;;;;12.15;5.63;;;;;;;;;;4975109;28;20026;-82
2023/03/22 05:16:10;;;;;;;8.90;4.90;;;;;;;;;;4970950;28;20174;-81
2023/03/22 05:18:41;;;;;;;7.28;4.05;;;;;;;;;;4985503;28;20513;-82
2023/03/22 05:21:12;;;;;;;8.00;3.58;;;;;;;;;;4963668;28;20387;-81
2023/03/22 05:23:38;;;;;;;6.40;3.90;;;;;;;;;;4968985;28;20025;-82
2023/03/22 05:26:03;;;;;;;6.60;3.53;;;;;;;;;;4989454;28;20029;-81
2023/03/22 05:28:30;;;;;;;7.50;3.83;;;;;;;;;;4990061;28;20041;-81
2023/03/22 05:30:56;;;;;;;6.00;3.20;;;;;;;;;;4981096;28;20459;-82
2023/03/22 05:33:21;;;;;;;8.73;3.10;;;;;;;;;;4988324;28;20033;-81
2023/03/22 05:35:48;;;;;;;7.88;3.40;;;;;;;;;;4985087;28;20026;-81
2023/03/22 05:38:14;;;;;;;7.95;3.15;;;;;;;;;;4985016;28;20053;-82
2023/03/22 05:40:39;;;;;;;5.80;3.10;;;;;;;;;;4972204;28;20112;-81
2023/03/22 05:43:04;;;;;;;5.47;3.10;;;;;;;;;;4984331;28;20415;-82
2023/03/22 05:45:31;;;;;;;8.05;2.58;;;;;;;;;;4985010;28;20035;-81
2023/03/22 05:47:56;;;;;;;5.57;2.60;;;;;;;;;;4987221;28;20477;-81
2023/03/22 05:50:22;;;;;;;6.28;2.22;;;;;;;;;;4987482;28;20033;-81
2023/03/22 05:52:48;;;;;;;6.45;2.20;;;;;;;;;;4974759;28;20022;-81
2023/03/22 05:55:16;;;;;;;6.78;2.58;;;;;;;;;;4991574;28;20444;-81
2023/03/22 05:57:43;;;;;;;5.85;2.58;;;;;;;;;;4988968;28;20402;-82
2023/03/22 06:00:12;;;;;;;6.05;2.60;;;;;;;;;;4984846;28;20114;-81
2023/03/22 06:02:45;;;;;;;5.10;2.38;;;;;;;;;;4984215;28;20034;-81
2023/03/22 06:05:12;;;;;;;6.22;2.60;;;;;;;;;;4987899;28;20042;-81
2023/03/22 06:07:38;;;;;;;5.80;2.58;;;;;;;;;;4981340;28;20027;-82
2023/03/22 06:10:05;;;;;;;6.55;2.85;;;;;;;;;;4956579;28;20494;-82
2023/03/22 06:12:31;;;;;;;8.82;3.10;;;;;;;;;;4987939;28;20089;-82
2023/03/22 06:14:57;;;;;;;6.80;2.65;;;;;;;;;;4972945;28;20030;-81
2023/03/22 06:17:23;;;;;;;4.85;2.42;;;;;;;;;;4986365;28;20034;-81
2023/03/22 06:19:49;;;;;;;7.50;2.95;;;;;;;;;;4970077;28;20550;-81
2023/03/22 06:22:15;;;;;;;4.88;2.35;;;;;;;;;;4987506;28;20026;-81
2023/03/22 06:24:41;;;;;;;8.50;2.38;;;;;;;;;;4981440;28;20038;-82
2023/03/22 06:27:07;;;;;;;6.78;2.40;;;;;;;;;;4982701;28;20034;-82
2023/03/22 06:29:32;;;;;;;6.55;2.58;;;;;;;;;;4967697;28;20042;-82
2023/03/22 06:31:58;;;;;;;5.35;1.90;;;;;;;;;;4976733;28;20034;-81
2023/03/22 06:34:23;;;;;;;6.50;2.15;;;;;;;;;;4977731;28;20161;-81
2023/03/22 06:36:49;;;;;;;7.63;2.03;;;;;;;;;;4974868;28;20030;-81
2023/03/22 06:39:14;;;;;;;4.18;1.75;;;;;;;;;;4995586;28;20398;-82
2023/03/22 06:41:39;;;;;;;5.00;1.92;;;;;;;;;;4989918;28;20027;-82
2023/03/22 06:44:05;;;;;;;4.70;2.13;;;;;;;;;;4989912;28;20037;-81
2023/03/22 06:46:30;;;;;;;5.80;2.47;;;;;;;;;;4970785;28;20176;-81
2023/03/22 06:48:55;;;;;;;5.45;2.10;;;;;;;;;;4986172;28;20022;-82
2023/03/22 06:51:21;;;;;;;7.00;2.17;;;;;;;;;;4995502;28;20033;-82
2023/03/22 06:53:47;;;;;;;8.52;2.20;;;;;;;;;;4970551;28;20208;-82
2023/03/22 06:56:12;;;;;;;5.78;2.00;;;;;;;;;;4977945;28;20037;-81
2023/03/22 06:58:37;;;;;;;7.00;2.08;;;;;;;;;;4981608;28;20383;-81
2023/03/22 07:01:03;;;;;;;4.70;1.50;;;;;;;;;;4980209;28;20030;-82
2023/03/22 07:03:28;;;;;;;4.68;2.05;;;;;;;;;;4986752;28;20029;-82
2023/03/22 07:06:06;;;;;;;5.07;1.95;;;;;;;;;;4990667;28;20450;-82
2023/03/22 07:08:32;;;;;;;5.35;1.90;;;;;;;;;;4982311;28;20041;-82
2023/03/22 07:10:57;;;;;;;5.07;1.80;;;;;;;;;;4980839;28;20027;-82
2023/03/22 07:13:23;;;;;;;6.80;2.03;;;;;;;;;;4975777;28;20373;-82
2023/03/22 07:15:48;;;;;;;6.57;2.20;;;;;;;;;;4971319;28;20027;-82
2023/03/22 07:18:14;;;;;;;6.22;2.03;;;;;;;;;;4987489;28;20037;-82
2023/03/22 07:20:40;;;;;;;4.28;2.05;;;;;;;;;;4974216;28;20509;-82
2023/03/22 07:23:09;;;;;;;6.38;2.15;;;;;;;;;;4997789;28;20026;-82
2023/03/22 07:25:35;;;;;;;7.38;2.45;;;;;;;;;;4967193;28;20453;-81
2023/03/22 07:28:00;;;;;;;6.72;2.60;;;;;;;;;;4970166;28;20030;-82
2023/03/22 07:30:25;;;;;;;7.35;2.58;;;;;;;;;;4987109;28;20755;-81
2023/03/22 07:32:51;;;;;;;5.65;2.45;;;;;;;;;;4992547;28;20121;-82
2023/03/22 07:35:17;;;;;;;7.97;2.33;;;;;;;;;;4992869;28;20041;-81
2023/03/22 07:37:43;;;;;;;6.10;2.60;;;;;;;;;;4994211;28;20034;-82
2023/03/22 07:40:09;;;;;;;6.38;2.25;;;;;;;;;;4976921;28;20038;-82
2023/03/22 07:42:34;;;;;;;6.63;2.42;;;;;;;;;;4992096;28;20041;-82
2023/03/22 07:45:00;;;;;;;5.97;2.70;;;;;;;;;;4989906;28;20378;-82
2023/03/22 07:47:25;;;;;;;6.65;2.92;;;;;;;;;;4987861;28;20510;-82
2023/03/22 07:49:51;;;;;;;8.98;2.70;;;;;;;;;;4994015;28;20073;-82
2023/03/22 07:52:17;;;;;;;7.25;2.90;;;;;;;;;;5003119;28;20030;-82
2023/03/22 07:54:42;;;;;;;6.38;2.58;;;;;;;;;;4961039;28;20046;-81
2023/03/22 07:57:08;;;;;;;7.22;2.63;;;;;;;;;;4975271;28;20509;-82
2023/03/22 07:59:33;;;;;;;6.47;2.35;;;;;;;;;;4975577;28;20117;-81
2023/03/22 08:01:59;;;;;;;7.20;2.70;;;;;;;;;;4988327;28;20046;-81
2023/03/22 08:04:25;;;;;;;8.43;2.63;;;;;;;;;;4983807;28;20053;-82
2023/03/22 08:06:50;;;;;;;5.13;2.10;;;;;;;;;;4972893;28;20032;-82
2023/03/22 08:09:16;;;;;;;5.15;2.42;;;;;;;;;;4970909;28;20671;-81
2023/03/22 08:11:42;;;;;;;8.32;2.13;;;;;;;;;;4988580;28;20045;-82
2023/03/22 08:14:07;;;;;;;5.20;2.50;;;;;;;;;;4990282;28;20395;-82
2023/03/22 08:16:33;;;;;;;7.45;2.10;;;;;;;;;;4986497;28;20045;-82
2023/03/22 08:18:58;;;;;;;9.73;2.30;;;;;;;;;;4990528;28;20026;-82
2023/03/22 08:21:24;;;;;;;8.40;2.30;;;;;;;;;;4989095;28;20027;-82
2023/03/22 08:23:49;;;;;;;4.82;2.53;;;;;;;;;;4971960;28;20057;-82
2023/03/22 08:26:16;;;;;;;5.80;2.38;;;;;;;;;;4990930;28;20120;-82
2023/03/22 08:28:41;;;;;;;7.13;2.38;;;;;;;;;;4985837;28;20038;-82
2023/03/22 08:31:15;;;;;;;9.65;2.78;;;;;;;;;;4973212;28;20018;-82
2023/03/22 08:33:42;;;;;;;5.05;2.47;;;;;;;;;;4971349;28;20049;-82
2023/03/22 08:36:13;;;;;;;9.52;2.65;;;;;;;;;;4997227;28;20053;-82
2023/03/22 08:38:38;;;;;;;6.00;2.22;;;;;;;;;;4988749;28;20047;-82
2023/03/22 08:41:04;;;;;;;9.43;2.67;;;;;;;;;;4993276;28;20027;-82
2023/03/22 08:43:30;;;;;;;8.95;2.50;;;;;;;;;;4993805;28;20386;-82
2023/03/22 08:45:56;;;;;;;8.75;2.72;;;;;;;;;;4980239;28;20475;-82
2023/03/22 08:48:21;;;;;;;7.07;2.22;;;;;;;;;;4989201;28;20034;-82
2023/03/22 08:50:47;;;;;;;5.60;2.50;;;;;;;;;;4976517;28;20034;-82
2023/03/22 08:53:12;;;;;;;9.73;2.55;;;;;;;;;;4981880;28;20034;-82
2023/03/22 08:55:43;;;;;;;4.75;2.22;;;;;;;;;;4979646;28;20030;-82
2023/03/22 08:58:10;;;;;;;6.72;2.10;;;;;;;;;;4976701;28;20081;-82
2023/03/22 09:00:35;;;;;;;5.18;2.03;;;;;;;;;;4984479;28;20482;-82
2023/03/22 09:03:00;;;;;;;6.20;2.70;;;;;;;;;;4991338;28;20037;-82
2023/03/22 09:05:26;;;;;;;6.90;2.47;;;;;;;;;;4994086;28;20460;-82
2023/03/22 09:07:52;;;;;;;5.07;2.20;;;;;;;;;;4967011;28;20048;-82
2023/03/22 09:10:17;;;;;;;6.93;2.47;;;;;;;;;;4974391;28;20034;-82
2023/03/22 09:12:43;;;;;;;5.88;2.03;;;;;;;;;;4996909;28;20036;-79
2023/03/22 09:15:08;;;;;;;6.78;2.17;;;;;;;;;;4978940;28;20153;-79
2023/03/22 09:17:35;;;;;;;7.82;2.58;;;;;;;;;;4980908;28;20038;-79
2023/03/22 09:20:00;;;;;;;7.25;1.95;;;;;;;;;;4982837;28;20030;-79
2023/03/22 09:22:26;;;;;;;6.15;1.95;;;;;;;;;;4975423;28;20034;-80
2023/03/22 09:24:51;;;;;;;6.40;1.85;;;;;;;;;;4994325;28;20057;-81
2023/03/22 09:27:18;;;;;;;5.90;1.73;;;;;;;;;;4999229;28;20379;-80
2023/03/22 09:29:44;;;;;;;5.15;2.00;;;;;;;;;;4980395;28;20053;-79
2023/03/22 09:32:09;;;;;;;6.32;2.17;;;;;;;;;;4993018;28;20112;-80
2023/03/22 09:34:35;;;;;;;7.63;1.98;;;;;;;;;;4982189;28;20026;-80
2023/03/22 09:37:01;;;;;;;10.38;2.03;;;;;;;;;;4997413;28;20027;-79
2023/03/22 09:39:27;;;;;;;5.78;2.00;;;;;;;;;;4985839;28;20037;-79
2023/03/22 09:42:01;;;;;;;2.83;1.33;;;;;;;;;;4988411;28;20026;-79
2023/03/22 09:44:31;;;;;;;4.57;1.50;;;;;;;;;;5000366;28;20022;-80
2023/03/22 09:47:00;;;;;;;4.15;1.67;;;;;;;;;;5002781;28;20549;-79
2023/03/22 09:49:34;;;;;;;4.75;1.60;;;;;;;;;;4987902;28;20027;-80
2023/03/22 09:52:00;;;;;;;7.60;1.98;;;;;;;;;;5000360;28;20057;-80
2023/03/22 09:54:34;;;;;;;5.88;1.52;;;;;;;;;;4998479;28;20050;-79
2023/03/22 09:57:00;;;;;;;4.28;1.80;;;;;;;;;;4977815;28;20062;-79
2023/03/22 10:00:01;;;;;;;3.83;1.52;;;;;;;;;;4999233;28;20390;-79
2023/03/22 10:02:44;;;;;;;5.63;1.70;;;;;;;;;;4988791;28;20037;-79
2023/03/22 10:05:27;;;;;;;4.72;1.50;;;;;;;;;;4977758;28;20022;-79
2023/03/22 10:08:11;;;;;;;4.80;1.48;;;;;;;;;;4991481;28;20094;-79
2023/03/22 10:10:40;;;;;;;5.75;1.35;;;;;;;;;;4997620;28;20034;-80
2023/03/22 10:13:13;;;;;;;8.65;2.00;;;;;;;;;;4993950;28;20746;-79
2023/03/22 10:15:43;;;;;;;5.95;1.70;;;;;;;;;;5001891;28;20034;-79
2023/03/22 10:18:34;;;;;;;6.28;1.60;;;;;;;;;;4981652;28;22125;-79
2023/03/22 10:21:06;;;;;;;3.00;1.52;;;;;;;;;;4981109;28;20137;-79
2023/03/22 10:23:49;;;;;;;3.83;1.42;;;;;;;;;;4980711;28;20026;-79
2023/03/22 10:26:23;;;;;;;9.35;1.70;;;;;;;;;;4979543;28;20060;-79
2023/03/22 10:28:58;;;;;;;5.72;1.60;;;;;;;;;;4980521;28;20505;-79
2023/03/22 10:31:26;;;;;;;5.60;1.67;;;;;;;;;;5003927;28;20121;-79
2023/03/22 10:34:10;;;;;;;5.53;1.60;;;;;;;;;;4994842;28;20030;-78
2023/03/22 10:36:39;;;;;;;4.43;1.45;;;;;;;;;;4996043;28;20034;-79
2023/03/22 10:39:16;;;;;;;8.73;1.75;;;;;;;;;;4993051;28;20060;-78
2023/03/22 10:41:42;;;;;;;3.88;1.40;;;;;;;;;;4977103;28;20038;-79
2023/03/22 10:44:16;;;;;;;3.60;1.50;;;;;;;;;;4978861;28;20398;-79
2023/03/22 10:46:43;;;;;;;2.85;1.35;;;;;;;;;;4996880;28;20048;-78
2023/03/22 10:49:27;;;;;;;6.10;1.70;;;;;;;;;;4997797;28;20026;-79
2023/03/22 10:51:56;;;;;;;4.20;1.48;;;;;;;;;;4986480;28;20045;-79
2023/03/22 10:54:24;;;;;;;4.15;1.55;;;;;;;;;;4975260;28;20027;-78
2023/03/22 10:56:49;;;;;;;6.97;1.63;;;;;;;;;;4995835;28;20034;-79
2023/03/22 10:59:44;;;;;;;5.68;1.50;;;;;;;;;;4975296;28;20121;-79
2023/03/22 11:02:17;;;;;;;5.65;1.58;;;;;;;;;;4977518;28;20032;-78
2023/03/22 11:04:50;;;;;;;4.78;1.55;;;;;;;;;;4978261;28;20097;-78
2023/03/22 11:07:30;;;;;;;5.22;1.75;;;;;;;;;;4991881;28;20045;-78
2023/03/22 11:10:11;;;;;;;7.50;1.55;;;;;;;;;;4983608;28;20030;-78
2023/03/22 11:12:39;;;;;;;6.57;1.50;;;;;;;;;;5012164;28;20538;-79
2023/03/22 11:15:06;;;;;;;6.00;1.60;;;;;;;;;;4986503;28;20034;-78
2023/03/22 11:17:32;;;;;;;7.82;1.90;;;;;;;;;;4980719;28;20022;-78
2023/03/22 11:20:05;;;;;;;7.78;1.67;;;;;;;;;;5003679;28;20049;-78
2023/03/22 11:22:38;;;;;;;6.45;1.63;;;;;;;;;;4977053;28;20054;-78
2023/03/22 11:25:14;;;;;;;7.67;1.87;;;;;;;;;;4994594;28;20026;-78
2023/03/22 11:27:55;;;;;;;5.10;1.77;;;;;;;;;;4980010;28;20876;-79
2023/03/22 11:30:24;;;;;;;4.78;2.22;;;;;;;;;;4988510;28;20037;-78
2023/03/22 11:33:19;;;;;;;7.13;2.30;;;;;;;;;;4989346;28;20034;-78
2023/03/22 11:35:47;;;;;;;6.85;2.30;;;;;;;;;;4994660;28;20106;-78
2023/03/22 11:38:24;;;;;;;6.38;2.00;;;;;;;;;;4997306;28;20026;-80
2023/03/22 11:40:56;;;;;;;5.75;1.80;;;;;;;;;;4972304;28;20034;-78
2023/03/22 11:43:25;;;;;;;4.90;1.63;;;;;;;;;;4997504;28;20113;-78
2023/03/22 11:45:55;;;;;;;2.72;1.65;;;;;;;;;;4992813;28;20038;-77
2023/03/22 11:48:24;;;;;;;4.63;2.15;;;;;;;;;;4977410;28;20504;-78
2023/03/22 11:50:52;;;;;;;6.05;1.92;;;;;;;;;;4974584;28;20030;-78
2023/03/22 11:53:23;;;;;;;4.90;2.05;;;;;;;;;;4977551;28;20025;-77
2023/03/22 11:55:51;;;;;;;6.00;1.90;;;;;;;;;;4980231;28;20034;-78
2023/03/22 11:58:41;;;;;;;6.53;2.00;;;;;;;;;;5006892;28;20109;-78
2023/03/22 12:01:30;;;;;;;4.35;1.90;;;;;;;;;;4984371;28;20498;-77
2023/03/22 12:03:56;;;;;;;5.50;1.70;;;;;;;;;;4991738;28;20046;-78
2023/03/22 12:06:30;;;;;;;6.22;2.00;;;;;;;;;;5001602;28;20032;-78
2023/03/22 12:09:28;;;;;;;8.35;1.90;;;;;;;;;;4980473;28;20050;-78
2023/03/22 12:11:59;;;;;;;6.38;2.20;;;;;;;;;;4934195;28;20047;-78
2023/03/22 12:14:34;;;;;;;4.05;1.70;;;;;;;;;;4986955;28;20077;-78
2023/03/22 12:17:18;;;;;;;4.85;1.83;;;;;;;;;;5001503;28;20026;-77
2023/03/22 12:20:05;;;;;;;4.45;1.77;;;;;;;;;;4992900;28;20045;-78
2023/03/22 12:22:34;;;;;;;3.55;1.58;;;;;;;;;;4983212;28;20090;-78
2023/03/22 12:25:02;;;;;;;4.55;1.83;;;;;;;;;;5000964;28;20508;-78
2023/03/22 12:27:37;;;;;;;4.38;1.70;;;;;;;;;;4980964;28;20544;-77
2023/03/22 12:30:03;;;;;;;4.22;1.98;;;;;;;;;;4985758;28;20026;-78
2023/03/22 12:32:34;;;;;;;4.20;1.77;;;;;;;;;;4994746;28;20056;-78
2023/03/22 12:35:00;;;;;;;5.78;1.95;;;;;;;;;;4981095;28;20038;-78
2023/03/22 12:37:30;;;;;;;5.32;2.17;;;;;;;;;;4996584;28;20031;-78
2023/03/22 12:40:22;;;;;;;5.55;1.60;;;;;;;;;;4990742;28;20478;-78
2023/03/22 12:43:20;;;;;;;3.80;1.80;;;;;;;;;;5012704;28;20025;-78
2023/03/22 12:45:52;;;;;;;7.85;1.85;;;;;;;;;;4955882;28;20065;-77
2023/03/22 12:48:17;;;;;;;3.88;1.80;;;;;;;;;;4994688;28;20049;-78
2023/03/22 12:50:48;;;;;;;4.45;1.88;;;;;;;;;;4976558;28;20042;-78
2023/03/22 12:53:16;;;;;;;3.85;1.75;;;;;;;;;;4994712;28;20034;-78
2023/03/22 12:55:44;;;;;;;5.63;2.13;;;;;;;;;;4997101;28;20034;-77
2023/03/22 12:58:17;;;;;;;3.45;1.90;;;;;;;;;;4983520;28;20089;-77
2023/03/22 13:00:48;;;;;;;3.47;1.63;;;;;;;;;;4998122;28;20031;-78
2023/03/22 13:03:16;;;;;;;3.95;1.52;;;;;;;;;;4993682;28;20052;-78
2023/03/22 13:05:43;;;;;;;5.30;1.90;;;;;;;;;;5000275;28;20026;-78
2023/03/22 13:08:09;;;;;;;3.90;1.55;;;;;;;;;;4976945;28;20022;-77
2023/03/22 13:10:38;;;;;;;4.38;1.70;;;;;;;;;;5005157;28;20420;-78
2023/03/22 13:13:14;;;;;;;4.18;1.83;;;;;;;;;;4983700;28;20048;-78
2023/03/22 13:15:59;;;;;;;4.25;1.58;;;;;;;;;;4995515;28;20030;-78
2023/03/22 13:18:34;;;;;;;5.88;1.60;;;;;;;;;;4988387;28;20098;-79
2023/03/22 13:21:08;;;;;;;3.92;1.38;;;;;;;;;;5001120;28;20033;-78
2023/03/22 13:23:34;;;;;;;3.50;1.48;;;;;;;;;;5000977;28;20046;-78
2023/03/22 13:26:02;;;;;;;5.10;1.65;;;;;;;;;;5002668;28;20029;-78
2023/03/22 13:28:29;;;;;;;4.15;1.48;;;;;;;;;;4997247;28;20027;-78
2023/03/22 13:30:57;;;;;;;4.30;1.50;;;;;;;;;;4983140;28;20038;-78
2023/03/22 13:33:34;;;;;;;7.05;1.65;;;;;;;;;;4985451;28;20026;-80
2023/03/22 13:36:06;;;;;;;4.30;1.55;;;;;;;;;;5003280;28;20058;-78
2023/03/22 13:38:35;;;;;;;2.60;1.50;;;;;;;;;;4989541;28;20031;-77
2023/03/22 13:41:05;;;;;;;3.72;1.67;;;;;;;;;;4990140;28;20066;-78
2023/03/22 13:43:45;;;;;;;4.47;1.70;;;;;;;;;;4981883;28;20037;-78
2023/03/22 13:46:18;;;;;;;3.25;1.70;;;;;;;;;;4984369;28;20030;-78
2023/03/22 13:48:44;;;;;;;4.60;1.67;;;;;;;;;;4995117;28;20031;-77
2023/03/22 13:51:17;;;;;;;4.13;1.80;;;;;;;;;;4980760;28;20050;-78
2023/03/22 13:54:08;;;;;;;4.38;1.85;;;;;;;;;;5000938;28;20037;-80
2023/03/22 13:56:39;;;;;;;3.92;1.70;;;;;;;;;;5004900;28;20042;-79
2023/03/22 13:59:10;;;;;;;6.78;1.70;;;;;;;;;;4982387;28;20081;-80
2023/03/22 14:01:46;;;;;;;3.83;1.55;;;;;;;;;;5004809;28;20042;-80
2023/03/22 14:04:21;;;;;;;4.57;1.67;;;;;;;;;;4986250;28;20026;-79
2023/03/22 14:06:58;;;;;;;4.57;1.90;;;;;;;;;;4987662;28;20109;-79
2023/03/22 14:09:30;;;;;;;4.10;1.73;;;;;;;;;;4986952;28;20485;-80
2023/03/22 14:12:15;;;;;;;8.30;2.00;;;;;;;;;;5006466;28;20356;-79
2023/03/22 14:14:43;;;;;;;6.15;2.20;;;;;;;;;;4988725;28;20018;-79
2023/03/22 14:17:25;;;;;;;4.07;1.92;;;;;;;;;;4983363;28;20054;-80
2023/03/22 14:19:51;;;;;;;4.60;2.35;;;;;;;;;;4980835;28;20542;-80
2023/03/22 14:22:27;;;;;;;5.30;2.05;;;;;;;;;;5014355;28;20026;-79
2023/03/22 14:24:56;;;;;;;2.97;1.90;;;;;;;;;;5005779;28;20076;-79
2023/03/22 14:27:21;;;;;;;4.72;2.00;;;;;;;;;;4991580;28;20041;-80
2023/03/22 14:29:47;;;;;;;5.78;2.15;;;;;;;;;;5003331;28;20026;-78
2023/03/22 14:32:22;;;;;;;5.00;2.10;;;;;;;;;;5004839;28;20057;-79
2023/03/22 14:34:51;;;;;;;4.88;2.28;;;;;;;;;;4989157;28;20093;-79
2023/03/22 14:37:17;;;;;;;5.50;2.15;;;;;;;;;;4983452;28;20382;-79
2023/03/22 14:39:46;;;;;;;4.55;2.13;;;;;;;;;;4993355;28;20038;-79
2023/03/22 14:42:20;;;;;;;7.85;2.50;;;;;;;;;;4978960;28;20029;-80
2023/03/22 14:44:48;;;;;;;9.73;2.30;;;;;;;;;;4993071;28;20406;-79
2023/03/22 14:47:18;;;;;;;6.47;2.25;;;;;;;;;;4975129;28;20477;-79
2023/03/22 14:49:46;;;;;;;7.13;2.33;;;;;;;;;;4988109;28;20033;-79
2023/03/22 14:52:21;;;;;;;6.78;2.40;;;;;;;;;;4988748;28;20097;-79
2023/03/22 14:54:49;;;;;;;5.90;2.30;;;;;;;;;;4977819;28;20026;-79
2023/03/22 14:57:16;;;;;;;6.35;2.15;;;;;;;;;;4973433;28;20034;-79
2023/03/22 14:59:45;;;;;;;5.93;2.42;;;;;;;;;;4995302;28;20041;-78
2023/03/22 15:02:23;;;;;;;5.80;2.17;;;;;;;;;;4981832;28;20026;-79